createdAt,value
2023-02-25T00:01:20.010Z,100.00
2023-02-25T00:03:48.601Z,100.00
2023-02-25T00:06:16.717Z,100.00
2023-02-25T00:08:46.042Z,100.00
2023-02-25T00:11:16.355Z,100.00
2023-02-25T00:13:44.738Z,100.00
2023-02-25T00:16:13.142Z,100.00
2023-02-25T00:18:44.206Z,100.00
2023-02-25T00:21:15.414Z,100.00
2023-02-25T00:23:44.411Z,100.00
2023-02-25T00:26:12.578Z,100.00
2023-02-25T00:28:43.201Z,100.00
2023-02-25T00:31:13.654Z,100.00
2023-02-25T00:33:42.309Z,100.00
2023-02-25T00:36:10.893Z,100.00
2023-02-25T00:38:38.879Z,100.00
2023-02-25T00:41:11.835Z,100.00
2023-02-25T00:43:40.373Z,100.00
2023-02-25T00:46:09.775Z,100.00
2023-02-25T00:48:38.499Z,100.00
2023-02-25T00:51:07.636Z,100.00
2023-02-25T00:53:35.703Z,100.00
2023-02-25T00:56:03.553Z,100.00
2023-02-25T00:58:31.332Z,100.00
2023-02-25T01:01:01.845Z,100.00
2023-02-25T01:03:31.238Z,100.00
2023-02-25T01:05:59.313Z,100.00
2023-02-25T01:08:27.571Z,100.00
2023-02-25T01:10:55.689Z,100.00
2023-02-25T01:13:24.396Z,100.00
2023-02-25T01:15:52.338Z,100.00
2023-02-25T01:18:20.775Z,100.00
2023-02-25T01:20:50.026Z,100.00
2023-02-25T01:23:19.717Z,100.00
2023-02-25T01:25:47.526Z,100.00
2023-02-25T01:28:15.346Z,100.00
2023-02-25T01:30:45.068Z,100.00
2023-02-25T01:33:13.155Z,100.00
2023-02-25T01:35:40.933Z,100.00
2023-02-25T01:38:10.129Z,100.00
2023-02-25T01:40:37.910Z,100.00
2023-02-25T01:43:08.066Z,100.00
2023-02-25T01:45:39.122Z,100.00
2023-02-25T01:48:10.947Z,100.00
2023-02-25T01:50:43.418Z,100.00
2023-02-25T01:53:15.527Z,100.00
2023-02-25T01:55:44.299Z,100.00
2023-02-25T01:58:13.497Z,100.00
2023-02-25T02:00:41.657Z,100.00
2023-02-25T02:03:15.894Z,100.00
2023-02-25T02:05:51.114Z,100.00
2023-02-25T02:08:20.545Z,100.00
2023-02-25T02:10:48.421Z,100.00
2023-02-25T02:13:16.591Z,100.00
2023-02-25T02:15:48.528Z,100.00
2023-02-25T02:18:17.806Z,100.00
2023-02-25T02:20:52.758Z,100.00
2023-02-25T02:23:39.754Z,100.00
2023-02-25T02:26:31.509Z,100.00
2023-02-25T02:29:17.883Z,100.00
2023-02-25T02:31:58.832Z,100.00
2023-02-25T02:34:32.288Z,100.00
2023-02-25T02:37:07.390Z,100.00
2023-02-25T02:39:44.607Z,100.00
2023-02-25T02:42:18.737Z,100.00
2023-02-25T02:44:49.852Z,100.00
2023-02-25T02:47:23.938Z,100.00
2023-02-25T02:49:54.990Z,100.00
2023-02-25T02:52:24.697Z,100.00
2023-02-25T02:54:55.615Z,100.00
2023-02-25T02:57:24.691Z,100.00
2023-02-25T02:59:55.043Z,100.00
2023-02-25T03:02:28.116Z,100.00
2023-02-25T03:05:01.569Z,100.00
2023-02-25T03:07:32.197Z,100.00
2023-02-25T03:10:03.835Z,100.00
2023-02-25T03:12:33.746Z,100.00
2023-02-25T03:15:01.384Z,100.00
2023-02-25T03:17:36.522Z,100.00
2023-02-25T03:20:09.373Z,100.00
2023-02-25T03:22:40.548Z,100.00
2023-02-25T03:25:11.799Z,100.00
2023-02-25T03:27:41.650Z,100.00
2023-02-25T03:30:13.077Z,100.00
2023-02-25T03:32:44.214Z,100.00
2023-02-25T03:35:13.981Z,100.00
2023-02-25T03:37:42.943Z,100.00
2023-02-25T03:40:13.855Z,100.00
2023-02-25T03:42:44.698Z,100.00
2023-02-25T03:45:14.716Z,100.00
2023-02-25T03:47:44.582Z,100.00
2023-02-25T03:50:14.718Z,100.00
2023-02-25T03:52:45.511Z,100.00
2023-02-25T03:55:29.349Z,100.00
2023-02-25T03:57:57.720Z,100.00
2023-02-25T04:00:26.517Z,100.00
2023-02-25T04:02:55.665Z,100.00
2023-02-25T04:05:25.074Z,100.00
2023-02-25T04:07:52.861Z,100.00
2023-02-25T04:10:20.917Z,100.00
2023-02-25T04:12:50.740Z,100.00
2023-02-25T04:15:19.665Z,100.00
2023-02-25T04:17:48.099Z,100.00
2023-02-25T04:20:17.303Z,100.00
2023-02-25T04:22:45.075Z,100.00
2023-02-25T04:25:13.199Z,100.00
2023-02-25T04:27:41.342Z,100.00
2023-02-25T04:30:09.802Z,100.00
2023-02-25T04:32:37.346Z,100.00
2023-02-25T04:35:06.040Z,100.00
2023-02-25T04:37:35.154Z,100.00
2023-02-25T04:40:05.129Z,100.00
2023-02-25T04:42:32.673Z,100.00
2023-02-25T04:45:00.885Z,100.00
2023-02-25T04:47:28.698Z,100.00
2023-02-25T04:49:56.367Z,100.00
2023-02-25T04:52:24.000Z,100.00
2023-02-25T04:54:53.207Z,100.00
2023-02-25T04:57:21.015Z,100.00
2023-02-25T04:59:48.999Z,100.00
2023-02-25T05:02:16.579Z,100.00
2023-02-25T05:04:44.506Z,100.00
2023-02-25T05:07:12.441Z,100.00
2023-02-25T05:09:40.181Z,100.00
2023-02-25T05:12:09.248Z,100.00
2023-02-25T05:14:37.833Z,100.00
2023-02-25T05:17:05.731Z,100.00
2023-02-25T05:19:33.722Z,100.00
2023-02-25T05:22:01.359Z,100.00
2023-02-25T05:24:29.119Z,100.00
2023-02-25T05:26:56.957Z,100.00
2023-02-25T05:29:26.105Z,100.00
2023-02-25T05:31:55.303Z,100.00
2023-02-25T05:34:23.491Z,100.00
2023-02-25T05:36:51.218Z,100.00
2023-02-25T05:39:18.996Z,100.00
2023-02-25T05:41:47.167Z,100.00
2023-02-25T05:44:14.712Z,100.00
2023-02-25T05:46:43.770Z,100.00
2023-02-25T05:49:11.692Z,100.00
2023-02-25T05:51:39.727Z,100.00
2023-02-25T05:54:07.654Z,100.00
2023-02-25T05:56:35.253Z,100.00
2023-02-25T05:59:03.005Z,100.00
2023-02-25T06:01:31.785Z,100.00
2023-02-25T06:04:01.239Z,100.00
2023-02-25T06:06:29.631Z,100.00
2023-02-25T06:08:57.662Z,100.00
2023-02-25T06:11:28.515Z,100.00
2023-02-25T06:13:56.952Z,100.00
2023-02-25T06:16:25.777Z,100.00
2023-02-25T06:18:53.956Z,100.00
2023-02-25T06:21:22.827Z,100.00
2023-02-25T06:23:51.338Z,100.00
2023-02-25T06:26:19.709Z,100.00
2023-02-25T06:28:47.462Z,100.00
2023-02-25T06:31:16.504Z,100.00
2023-02-25T06:33:44.630Z,100.00
2023-02-25T06:36:13.872Z,100.00
2023-02-25T06:38:43.214Z,100.00
2023-02-25T06:41:12.019Z,100.00
2023-02-25T06:43:39.857Z,100.00
2023-02-25T06:46:08.905Z,100.00
2023-02-25T06:48:37.003Z,100.00
2023-02-25T06:51:09.456Z,100.00
2023-02-25T06:53:37.878Z,100.00
2023-02-25T06:56:08.752Z,100.00
2023-02-25T06:58:37.510Z,100.00
2023-02-25T07:01:06.788Z,100.00
2023-02-25T07:03:35.127Z,100.00
2023-02-25T07:06:03.513Z,100.00
2023-02-25T07:08:32.399Z,100.00
2023-02-25T07:11:14.833Z,100.00
2023-02-25T07:13:43.816Z,100.00
2023-02-25T07:16:11.558Z,100.00
2023-02-25T07:18:39.553Z,100.00
2023-02-25T07:21:07.321Z,100.00
2023-02-25T07:23:35.398Z,100.00
2023-02-25T07:26:03.720Z,100.00
2023-02-25T07:28:32.675Z,100.00
2023-02-25T07:31:01.404Z,100.00
2023-02-25T07:33:29.655Z,100.00
2023-02-25T07:36:00.752Z,100.00
2023-02-25T07:38:28.291Z,100.00
2023-02-25T07:41:04.636Z,100.00
2023-02-25T07:43:33.695Z,100.00
2023-02-25T07:46:01.721Z,100.00
2023-02-25T07:48:30.033Z,100.00
2023-02-25T07:51:06.248Z,100.00
2023-02-25T07:53:33.976Z,100.00
2023-02-25T07:56:01.992Z,100.00
2023-02-25T07:58:29.913Z,100.00
2023-02-25T08:00:59.834Z,100.00
2023-02-25T08:03:28.103Z,100.00
2023-02-25T08:05:55.717Z,100.00
2023-02-25T08:08:23.506Z,100.00
2023-02-25T08:10:51.147Z,100.00
2023-02-25T08:13:19.452Z,100.00
2023-02-25T08:15:47.517Z,100.00
2023-02-25T08:18:16.693Z,100.00
2023-02-25T08:20:46.557Z,100.00
2023-02-25T08:23:14.593Z,100.00
2023-02-25T08:25:42.230Z,100.00
2023-02-25T08:28:10.312Z,100.00
2023-02-25T08:30:38.357Z,100.00
2023-02-25T08:33:06.230Z,100.00
2023-02-25T08:35:35.271Z,100.00
2023-02-25T08:38:07.817Z,100.00
2023-02-25T08:40:36.415Z,100.00
2023-02-25T08:43:04.235Z,100.00
2023-02-25T08:45:32.145Z,100.00
2023-02-25T08:48:00.176Z,100.00
2023-02-25T08:50:27.961Z,100.00
2023-02-25T08:52:57.841Z,100.00
2023-02-25T08:55:25.621Z,100.00
2023-02-25T08:57:53.683Z,100.00
2023-02-25T09:00:22.704Z,100.00
2023-02-25T09:02:50.643Z,100.00
2023-02-25T09:05:20.563Z,100.00
2023-02-25T09:07:48.499Z,100.00
2023-02-25T09:10:18.044Z,100.00
2023-02-25T09:12:46.506Z,100.00
2023-02-25T09:15:14.601Z,100.00
2023-02-25T09:17:42.195Z,100.00
2023-02-25T09:20:11.418Z,100.00
2023-02-25T09:22:40.136Z,100.00
2023-02-25T09:25:08.301Z,100.00
2023-02-25T09:27:37.606Z,100.00
2023-02-25T09:30:05.777Z,100.00
2023-02-25T09:32:33.636Z,100.00
2023-02-25T09:35:07.142Z,100.00
2023-02-25T09:37:35.454Z,100.00
2023-02-25T09:40:05.620Z,100.00
2023-02-25T09:42:43.672Z,100.00
2023-02-25T09:45:15.604Z,100.00
2023-02-25T09:47:46.707Z,100.00
2023-02-25T09:50:21.667Z,100.00
2023-02-25T09:52:54.673Z,100.00
2023-02-25T09:55:24.363Z,100.00
2023-02-25T09:57:58.477Z,100.00
2023-02-25T10:00:28.093Z,100.00
2023-02-25T10:02:59.489Z,100.00
2023-02-25T10:05:30.401Z,100.00
2023-02-25T10:08:02.779Z,98.99
2023-02-25T10:10:35.421Z,100.00
2023-02-25T10:13:07.230Z,99.21
2023-02-25T10:15:52.508Z,92.96
2023-02-25T10:18:34.047Z,89.74
2023-02-25T10:21:08.374Z,87.45
2023-02-25T10:23:49.144Z,85.21
2023-02-25T10:26:19.189Z,82.77
2023-02-25T10:28:49.051Z,81.14
2023-02-25T10:31:19.722Z,76.57
2023-02-25T10:33:49.873Z,77.73
2023-02-25T10:36:18.658Z,78.17
2023-02-25T10:38:47.867Z,81.34
2023-02-25T10:41:16.274Z,83.02
2023-02-25T10:43:44.769Z,82.03
2023-02-25T10:46:15.336Z,86.30
2023-02-25T10:48:50.411Z,80.81
2023-02-25T10:51:18.487Z,76.12
2023-02-25T10:54:02.553Z,70.92
2023-02-25T10:56:33.929Z,70.47
2023-02-25T10:59:02.750Z,71.15
2023-02-25T11:01:36.603Z,73.64
2023-02-25T11:04:06.976Z,60.02
2023-02-25T11:06:35.849Z,67.48
2023-02-25T11:09:05.783Z,72.59
2023-02-25T11:11:34.643Z,72.04
2023-02-25T11:14:05.141Z,75.61
2023-02-25T11:16:36.289Z,77.38
2023-02-25T11:19:11.539Z,75.20
2023-02-25T11:21:40.857Z,73.82
2023-02-25T11:24:14.936Z,76.70
2023-02-25T11:26:45.269Z,67.20
2023-02-25T11:29:15.560Z,69.07
2023-02-25T11:31:44.100Z,72.54
2023-02-25T11:34:17.019Z,80.60
2023-02-25T11:36:48.139Z,78.48
2023-02-25T11:39:20.643Z,76.31
2023-02-25T11:41:49.518Z,76.36
2023-02-25T11:44:22.877Z,75.78
2023-02-25T11:47:00.034Z,69.27
2023-02-25T11:49:32.972Z,66.08
2023-02-25T11:52:05.974Z,76.54
2023-02-25T11:54:37.054Z,80.67
2023-02-25T11:57:10.310Z,78.21
2023-02-25T11:59:39.852Z,75.20
2023-02-25T12:02:17.957Z,76.32
2023-02-25T12:04:54.461Z,63.02
2023-02-25T12:07:35.120Z,73.42
2023-02-25T12:10:21.997Z,71.94
2023-02-25T12:13:06.999Z,77.06
2023-02-25T12:15:52.406Z,81.86
2023-02-25T12:18:34.709Z,87.46
2023-02-25T12:21:25.808Z,96.31
2023-02-25T12:24:12.277Z,100.00
2023-02-25T12:26:58.208Z,100.00
2023-02-25T12:29:38.504Z,100.00
2023-02-25T12:32:27.143Z,100.00
2023-02-25T12:35:09.664Z,100.00
2023-02-25T12:37:56.734Z,100.00
2023-02-25T12:40:33.352Z,100.00
2023-02-25T12:43:06.817Z,100.00
2023-02-25T12:45:45.295Z,100.00
2023-02-25T12:48:32.443Z,100.00
2023-02-25T12:51:14.825Z,100.00
2023-02-25T12:53:46.874Z,100.00
2023-02-25T12:56:31.397Z,100.00
2023-02-25T12:59:16.897Z,100.00
2023-02-25T13:01:52.631Z,100.00
2023-02-25T13:04:38.115Z,100.00
2023-02-25T13:07:25.512Z,100.00
2023-02-25T13:10:08.109Z,100.00
2023-02-25T13:12:49.683Z,100.00
2023-02-25T13:15:21.032Z,100.00
2023-02-25T13:18:07.473Z,100.00
2023-02-25T13:20:56.137Z,100.00
2023-02-25T13:23:39.419Z,100.00
2023-02-25T13:26:15.589Z,100.00
2023-02-25T13:28:52.876Z,100.00
2023-02-25T13:31:25.294Z,100.00
2023-02-25T13:34:03.773Z,100.00
2023-02-25T13:36:39.962Z,84.91
2023-02-25T13:39:15.561Z,82.23
2023-02-25T13:41:52.697Z,80.81
2023-02-25T13:44:39.823Z,62.98
2023-02-25T13:47:31.988Z,66.70
2023-02-25T13:50:18.077Z,73.86
2023-02-25T13:52:55.796Z,69.35
2023-02-25T13:55:36.900Z,56.76
2023-02-25T13:58:15.982Z,57.81
2023-02-25T14:01:00.069Z,59.05
2023-02-25T14:03:48.509Z,59.06
2023-02-25T14:06:25.437Z,64.91
2023-02-25T14:09:12.311Z,57.75
2023-02-25T14:11:44.612Z,51.02
2023-02-25T14:14:27.629Z,49.34
2023-02-25T14:17:09.697Z,54.18
2023-02-25T14:19:41.448Z,64.32
2023-02-25T14:22:30.352Z,65.77
2023-02-25T14:25:04.155Z,71.12
2023-02-25T14:27:34.719Z,80.59
2023-02-25T14:30:14.494Z,82.31
2023-02-25T14:32:50.376Z,80.71
2023-02-25T14:35:28.557Z,77.14
2023-02-25T14:38:04.324Z,67.47
2023-02-25T14:40:36.964Z,67.41
2023-02-25T14:43:13.057Z,77.87
2023-02-25T14:45:44.620Z,100.00
2023-02-25T14:48:17.980Z,100.00
2023-02-25T14:50:48.132Z,100.00
2023-02-25T14:53:34.299Z,100.00
2023-02-25T14:56:28.604Z,100.00
2023-02-25T14:59:13.091Z,100.00
2023-02-25T15:01:58.466Z,100.00
2023-02-25T15:04:37.592Z,100.00
2023-02-25T15:07:11.429Z,100.00
2023-02-25T15:10:01.226Z,100.00
2023-02-25T15:12:37.159Z,100.00
2023-02-25T15:15:24.922Z,100.00
2023-02-25T15:18:17.205Z,100.00
2023-02-25T15:20:46.847Z,100.00
2023-02-25T15:23:16.069Z,100.00
2023-02-25T15:25:45.472Z,100.00
2023-02-25T15:28:31.594Z,100.00
2023-02-25T15:31:07.866Z,100.00
2023-02-25T15:33:36.516Z,100.00
2023-02-25T15:36:20.681Z,100.00
2023-02-25T15:38:51.639Z,100.00
2023-02-25T15:41:41.257Z,100.00
2023-02-25T15:44:33.178Z,76.40
2023-02-25T15:47:23.247Z,80.66
2023-02-25T15:49:51.660Z,78.10
2023-02-25T15:52:37.997Z,77.16
2023-02-25T15:55:20.151Z,89.54
2023-02-25T15:57:48.233Z,95.12
2023-02-25T16:00:34.732Z,100.00
2023-02-25T16:03:23.102Z,100.00
2023-02-25T16:05:51.128Z,100.00
2023-02-25T16:08:23.825Z,100.00
2023-02-25T16:10:55.310Z,100.00
2023-02-25T16:13:26.357Z,100.00
2023-02-25T16:15:57.387Z,100.00
2023-02-25T16:18:30.493Z,100.00
2023-02-25T16:21:00.479Z,100.00
2023-02-25T16:23:31.067Z,100.00
2023-02-25T16:26:05.873Z,100.00
2023-02-25T16:28:37.957Z,100.00
2023-02-25T16:31:11.681Z,100.00
2023-02-25T16:33:45.075Z,100.00
2023-02-25T16:36:18.251Z,100.00
2023-02-25T16:38:48.378Z,100.00
2023-02-25T16:41:17.398Z,100.00
2023-02-25T16:43:45.886Z,100.00
2023-02-25T16:46:16.482Z,100.00
2023-02-25T16:48:50.297Z,100.00
2023-02-25T16:51:25.963Z,100.00
2023-02-25T16:53:58.911Z,100.00
2023-02-25T16:56:29.623Z,100.00
2023-02-25T16:59:15.173Z,100.00
2023-02-25T17:01:48.136Z,100.00
2023-02-25T17:04:17.078Z,98.12
2023-02-25T17:06:44.611Z,96.17
2023-02-25T17:09:22.871Z,100.00
2023-02-25T17:11:54.376Z,100.00
2023-02-25T17:14:22.483Z,96.92
2023-02-25T17:16:51.060Z,97.54
2023-02-25T17:19:21.170Z,93.93
2023-02-25T17:21:52.243Z,93.52
2023-02-25T17:24:21.772Z,89.18
2023-02-25T17:26:50.186Z,91.38
2023-02-25T17:29:19.322Z,82.89
2023-02-25T17:31:48.713Z,82.78
2023-02-25T17:34:19.167Z,81.59
2023-02-25T17:36:47.576Z,80.61
2023-02-25T17:39:16.832Z,80.20
2023-02-25T17:41:44.963Z,76.80
2023-02-25T17:44:13.839Z,75.64
2023-02-25T17:46:52.484Z,77.89
2023-02-25T17:49:24.820Z,79.50
2023-02-25T17:51:53.888Z,74.28
2023-02-25T17:54:23.320Z,75.06
2023-02-25T17:56:58.807Z,73.78
2023-02-25T17:59:36.593Z,73.72
2023-02-25T18:02:29.776Z,74.34
2023-02-25T18:05:18.524Z,74.84
2023-02-25T18:07:59.522Z,74.44
2023-02-25T18:10:42.275Z,72.55
2023-02-25T18:13:18.808Z,73.20
2023-02-25T18:15:53.176Z,75.72
2023-02-25T18:18:25.110Z,74.76
2023-02-25T18:20:58.065Z,73.77
2023-02-25T18:23:27.587Z,75.58
2023-02-25T18:26:10.174Z,77.62
2023-02-25T18:28:38.757Z,77.83
2023-02-25T18:31:08.013Z,76.82
2023-02-25T18:33:37.428Z,77.39
2023-02-25T18:36:05.838Z,78.87
2023-02-25T18:38:35.021Z,79.44
2023-02-25T18:41:07.070Z,79.64
2023-02-25T18:43:40.107Z,77.51
2023-02-25T18:46:07.719Z,77.54
2023-02-25T18:48:37.161Z,76.82
2023-02-25T18:51:05.655Z,78.56
2023-02-25T18:53:33.643Z,78.10
2023-02-25T18:56:01.988Z,79.35
2023-02-25T18:58:29.962Z,80.57
2023-02-25T19:00:59.556Z,82.70
2023-02-25T19:03:36.365Z,82.72
2023-02-25T19:06:06.529Z,82.17
2023-02-25T19:08:34.423Z,81.93
2023-02-25T19:11:02.265Z,80.48
2023-02-25T19:13:30.873Z,81.24
2023-02-25T19:15:58.490Z,83.81
2023-02-25T19:18:26.480Z,84.02
2023-02-25T19:20:55.190Z,83.33
2023-02-25T19:23:25.200Z,84.41
2023-02-25T19:25:56.257Z,86.73
2023-02-25T19:28:24.118Z,86.85
2023-02-25T19:30:51.777Z,86.19
2023-02-25T19:33:19.453Z,87.50
2023-02-25T19:35:47.119Z,87.44
2023-02-25T19:38:16.588Z,88.64
2023-02-25T19:40:46.632Z,90.85
2023-02-25T19:43:15.184Z,92.42
2023-02-25T19:45:43.198Z,91.73
2023-02-25T19:48:11.387Z,90.75
2023-02-25T19:50:41.393Z,93.39
2023-02-25T19:53:09.429Z,88.56
2023-02-25T19:55:39.057Z,89.25
2023-02-25T19:58:08.200Z,90.36
2023-02-25T20:00:36.122Z,88.09
2023-02-25T20:03:03.858Z,88.64
2023-02-25T20:05:31.589Z,88.81
2023-02-25T20:08:00.599Z,89.89
2023-02-25T20:10:28.220Z,92.28
2023-02-25T20:12:55.914Z,92.22
2023-02-25T20:15:24.914Z,90.79
2023-02-25T20:17:55.298Z,91.97
2023-02-25T20:20:23.822Z,94.42
2023-02-25T20:22:51.693Z,94.03
2023-02-25T20:25:21.499Z,96.01
2023-02-25T20:27:49.166Z,96.50
2023-02-25T20:30:17.882Z,98.14
2023-02-25T20:32:47.515Z,97.95
2023-02-25T20:35:17.109Z,96.67
2023-02-25T20:37:49.659Z,97.04
2023-02-25T20:40:17.995Z,98.25
2023-02-25T20:42:45.573Z,99.40
2023-02-25T20:45:15.944Z,97.57
2023-02-25T20:47:43.953Z,98.65
2023-02-25T20:50:15.764Z,99.24
2023-02-25T20:52:43.979Z,97.86
2023-02-25T20:55:14.532Z,100.00
2023-02-25T20:57:42.544Z,99.40
2023-02-25T21:00:15.606Z,100.00
2023-02-25T21:02:47.248Z,100.00
2023-02-25T21:05:17.228Z,99.90
2023-02-25T21:07:44.935Z,100.00
2023-02-25T21:10:13.008Z,100.00
2023-02-25T21:12:40.523Z,100.00
2023-02-25T21:15:08.887Z,100.00
2023-02-25T21:17:36.787Z,100.00
2023-02-25T21:20:07.098Z,100.00
2023-02-25T21:22:36.493Z,100.00
2023-02-25T21:25:10.225Z,100.00
2023-02-25T21:27:38.136Z,100.00
2023-02-25T21:30:07.655Z,100.00
2023-02-25T21:32:35.877Z,100.00
2023-02-25T21:35:06.688Z,100.00
2023-02-25T21:37:36.084Z,100.00
2023-02-25T21:40:04.487Z,100.00
2023-02-25T21:42:32.416Z,100.00
2023-02-25T21:45:01.094Z,100.00
2023-02-25T21:47:28.641Z,100.00
2023-02-25T21:49:56.659Z,100.00
2023-02-25T21:52:24.405Z,100.00
2023-02-25T21:54:54.084Z,100.00
2023-02-25T21:57:22.165Z,100.00
2023-02-25T21:59:51.722Z,100.00
2023-02-25T22:02:19.628Z,100.00
2023-02-25T22:04:47.709Z,100.00
2023-02-25T22:07:18.154Z,100.00
2023-02-25T22:09:45.990Z,100.00
2023-02-25T22:12:15.252Z,100.00
2023-02-25T22:14:45.609Z,100.00
2023-02-25T22:17:13.686Z,100.00
2023-02-25T22:19:41.538Z,100.00
2023-02-25T22:22:08.987Z,100.00
2023-02-25T22:24:36.585Z,100.00
2023-02-25T22:27:04.267Z,100.00
2023-02-25T22:29:33.323Z,100.00
2023-02-25T22:32:01.353Z,100.00
2023-02-25T22:34:29.100Z,100.00
2023-02-25T22:36:56.989Z,100.00
2023-02-25T22:39:24.681Z,99.81
2023-02-25T22:41:52.498Z,97.47
2023-02-25T22:44:20.044Z,96.82
2023-02-25T22:46:49.159Z,96.81
2023-02-25T22:49:17.308Z,96.16
2023-02-25T22:51:45.911Z,96.94
2023-02-25T22:54:14.715Z,98.35
2023-02-25T22:56:42.799Z,99.22
2023-02-25T22:59:12.021Z,100.00
2023-02-25T23:01:40.620Z,100.00
2023-02-25T23:04:10.149Z,100.00
2023-02-25T23:06:44.006Z,100.00
2023-02-25T23:09:12.850Z,100.00
2023-02-25T23:11:42.374Z,99.93
2023-02-25T23:14:13.580Z,100.00
2023-02-25T23:16:43.009Z,99.11
2023-02-25T23:19:15.789Z,99.18
2023-02-25T23:21:49.506Z,98.37
2023-02-25T23:24:21.017Z,96.10
2023-02-25T23:26:50.552Z,95.63
2023-02-25T23:29:18.860Z,94.59
2023-02-25T23:31:48.165Z,94.61
2023-02-25T23:34:19.052Z,94.75
2023-02-25T23:36:48.473Z,93.48
2023-02-25T23:39:17.482Z,94.27
2023-02-25T23:44:17.280Z,95.59
2023-02-25T23:46:47.524Z,97.34
2023-02-25T23:49:16.135Z,99.75
2023-02-25T23:51:49.849Z,100.00
2023-02-25T23:54:19.582Z,100.00
2023-02-25T23:56:47.548Z,99.28
2023-02-25T23:59:15.541Z,99.89
